sensor_id;sensor_type;location;lat;lon;timestamp;pressure;altitude;pressure_sealevel;temperature;humidity
27980;BME280;15315;50.836;4.430;2023-05-29T00:04:19;101616.44;;;19.01;85.22
27980;BME280;15315;50.836;4.430;2023-05-29T00:14:22;101625.69;;;19.09;84.02
27980;BME280;15315;50.836;4.430;2023-05-29T00:24:23;101627.53;;;18.39;88.33
27980;BME280;15315;50.836;4.430;2023-05-29T00:34:24;101632.94;;;18.60;88.00
27980;BME280;15315;50.836;4.430;2023-05-29T00:44:25;101640.94;;;18.21;90.86
27980;BME280;15315;50.836;4.430;2023-05-29T00:54:29;101637.88;;;17.73;95.65
27980;BME280;15315;50.836;4.430;2023-05-29T01:04:31;101642.47;;;17.41;99.57
27980;BME280;15315;50.836;4.430;2023-05-29T01:25:23;101656.69;;;16.46;100.00
27980;BME280;15315;50.836;4.430;2023-05-29T01:35:25;101670.19;;;16.92;100.00
27980;BME280;15315;50.836;4.430;2023-05-29T01:45:25;101668.69;;;16.55;100.00
27980;BME280;15315;50.836;4.430;2023-05-29T01:55:26;101679.69;;;16.98;100.00
27980;BME280;15315;50.836;4.430;2023-05-29T02:05:26;101679.69;;;16.31;100.00
27980;BME280;15315;50.836;4.430;2023-05-29T02:15:27;101680.19;;;16.01;100.00
27980;BME280;15315;50.836;4.430;2023-05-29T02:25:27;101681.53;;;15.85;100.00
27980;BME280;15315;50.836;4.430;2023-05-29T02:35:28;101679.78;;;15.84;100.00
27980;BME280;15315;50.836;4.430;2023-05-29T02:45:28;101682.72;;;16.16;100.00
27980;BME280;15315;50.836;4.430;2023-05-29T02:55:28;101673.78;;;16.14;100.00
27980;BME280;15315;50.836;4.430;2023-05-29T03:05:29;101680.59;;;15.73;100.00
27980;BME280;15315;50.836;4.430;2023-05-29T03:15:29;101686.50;;;15.07;100.00
27980;BME280;15315;50.836;4.430;2023-05-29T03:25:29;101691.69;;;14.61;100.00
27980;BME280;15315;50.836;4.430;2023-05-29T03:35:30;101709.28;;;14.56;100.00
27980;BME280;15315;50.836;4.430;2023-05-29T03:45:30;101693.66;;;14.72;100.00
27980;BME280;15315;50.836;4.430;2023-05-29T03:55:31;101699.81;;;14.23;100.00
27980;BME280;15315;50.836;4.430;2023-05-29T04:05:32;101719.69;;;14.37;100.00
27980;BME280;15315;50.836;4.430;2023-05-29T04:15:32;101740.50;;;14.36;99.72
27980;BME280;15315;50.836;4.430;2023-05-29T04:25:35;101756.78;;;14.23;100.00
27980;BME280;15315;50.836;4.430;2023-05-29T04:35:36;101771.16;;;13.72;100.00
27980;BME280;15315;50.836;4.430;2023-05-29T04:45:36;101781.59;;;14.17;97.66
27980;BME280;15315;50.836;4.430;2023-05-29T04:55:37;101776.69;;;14.87;93.99
27980;BME280;15315;50.836;4.430;2023-05-29T05:05:37;101783.88;;;13.84;99.68
27980;BME280;15315;50.836;4.430;2023-05-29T05:15:38;101799.53;;;14.45;95.21
27980;BME280;15315;50.836;4.430;2023-05-29T05:25:38;101801.22;;;14.48;96.31
27980;BME280;15315;50.836;4.430;2023-05-29T05:35:39;101812.69;;;14.39;95.31
27980;BME280;15315;50.836;4.430;2023-05-29T05:45:39;101806.66;;;14.60;93.52
27980;BME280;15315;50.836;4.430;2023-05-29T05:55:43;101811.25;;;14.72;91.87
27980;BME280;15315;50.836;4.430;2023-05-29T06:05:43;101822.31;;;14.95;93.13
27980;BME280;15315;50.836;4.430;2023-05-29T06:15:44;101827.97;;;14.79;95.08
27980;BME280;15315;50.836;4.430;2023-05-29T06:25:45;101831.44;;;14.81;95.46
27980;BME280;15315;50.836;4.430;2023-05-29T06:35:45;101815.47;;;14.89;92.95
27980;BME280;15315;50.836;4.430;2023-05-29T06:45:45;101836.66;;;14.97;92.41
27980;BME280;15315;50.836;4.430;2023-05-29T06:55:46;101840.66;;;15.04;93.50
27980;BME280;15315;50.836;4.430;2023-05-29T07:05:46;101831.97;;;15.49;90.58
27980;BME280;15315;50.836;4.430;2023-05-29T07:15:48;101828.28;;;15.74;87.70
27980;BME280;15315;50.836;4.430;2023-05-29T07:25:49;101831.03;;;15.97;86.37
27980;BME280;15315;50.836;4.430;2023-05-29T07:35:49;101819.66;;;16.03;83.88
27980;BME280;15315;50.836;4.430;2023-05-29T07:45:49;101825.25;;;16.60;82.65
27980;BME280;15315;50.836;4.430;2023-05-29T07:55:50;101826.22;;;17.50;78.51
27980;BME280;15315;50.836;4.430;2023-05-29T08:05:50;101836.09;;;16.95;78.69
27980;BME280;15315;50.836;4.430;2023-05-29T08:15:50;101844.34;;;16.37;79.42
27980;BME280;15315;50.836;4.430;2023-05-29T08:25:51;101834.16;;;16.04;78.98
27980;BME280;15315;50.836;4.430;2023-05-29T08:35:51;101845.06;;;16.62;77.74
27980;BME280;15315;50.836;4.430;2023-05-29T08:46:01;101846.97;;;16.95;77.17
27980;BME280;15315;50.836;4.430;2023-05-29T08:56:02;101843.22;;;17.53;74.90
27980;BME280;15315;50.836;4.430;2023-05-29T09:06:03;101853.22;;;17.75;74.53
27980;BME280;15315;50.836;4.430;2023-05-29T09:16:04;101862.75;;;17.69;75.00
27980;BME280;15315;50.836;4.430;2023-05-29T09:26:04;101869.50;;;18.30;72.87
27980;BME280;15315;50.836;4.430;2023-05-29T09:36:05;101873.16;;;17.98;72.49
27980;BME280;15315;50.836;4.430;2023-05-29T09:46:06;101871.50;;;18.49;71.21
27980;BME280;15315;50.836;4.430;2023-05-29T09:56:09;101871.97;;;18.54;71.26
27980;BME280;15315;50.836;4.430;2023-05-29T10:06:10;101866.09;;;18.70;67.96
27980;BME280;15315;50.836;4.430;2023-05-29T10:16:12;101862.38;;;19.12;67.22
27980;BME280;15315;50.836;4.430;2023-05-29T10:26:15;101858.84;;;19.31;66.42
27980;BME280;15315;50.836;4.430;2023-05-29T10:36:22;101858.19;;;19.38;65.06
27980;BME280;15315;50.836;4.430;2023-05-29T10:56:45;101851.75;;;19.49;62.49
27980;BME280;15315;50.836;4.430;2023-05-29T11:06:52;101841.91;;;19.67;61.86
27980;BME280;15315;50.836;4.430;2023-05-29T11:16:52;101841.94;;;19.37;62.74
27980;BME280;15315;50.836;4.430;2023-05-29T11:26:56;101832.41;;;19.10;62.09
27980;BME280;15315;50.836;4.430;2023-05-29T11:36:58;101816.91;;;19.91;60.21
27980;BME280;15315;50.836;4.430;2023-05-29T11:47:05;101815.94;;;20.30;59.11
27980;BME280;15315;50.836;4.430;2023-05-29T11:57:07;101812.81;;;21.10;58.13
27980;BME280;15315;50.836;4.430;2023-05-29T12:07:18;101811.00;;;20.91;57.56
27980;BME280;15315;50.836;4.430;2023-05-29T12:17:19;101812.47;;;20.76;56.08
27980;BME280;15315;50.836;4.430;2023-05-29T12:27:20;101813.75;;;20.72;55.86
27980;BME280;15315;50.836;4.430;2023-05-29T12:37:22;101811.94;;;21.19;55.01
27980;BME280;15315;50.836;4.430;2023-05-29T12:47:25;101807.50;;;22.17;53.26
27980;BME280;15315;50.836;4.430;2023-05-29T12:57:26;101812.84;;;21.91;53.00
27980;BME280;15315;50.836;4.430;2023-05-29T13:07:27;101808.91;;;21.76;53.51
27980;BME280;15315;50.836;4.430;2023-05-29T13:17:28;101797.75;;;22.40;52.41
27980;BME280;15315;50.836;4.430;2023-05-29T13:27:28;101814.69;;;22.00;52.00
27980;BME280;15315;50.836;4.430;2023-05-29T13:37:29;101801.88;;;22.79;50.90
27980;BME280;15315;50.836;4.430;2023-05-29T13:47:29;101788.91;;;22.90;49.82
27980;BME280;15315;50.836;4.430;2023-05-29T13:57:32;101798.38;;;23.55;49.70
27980;BME280;15315;50.836;4.430;2023-05-29T14:07:32;101811.59;;;23.17;49.37
27980;BME280;15315;50.836;4.430;2023-05-29T14:17:33;101795.47;;;24.22;48.29
27980;BME280;15315;50.836;4.430;2023-05-29T14:27:33;101781.97;;;23.87;48.40
27980;BME280;15315;50.836;4.430;2023-05-29T14:37:34;101781.09;;;23.86;47.38
27980;BME280;15315;50.836;4.430;2023-05-29T14:47:37;101782.50;;;23.15;48.20
27980;BME280;15315;50.836;4.430;2023-05-29T14:57:37;101778.78;;;24.56;46.82
27980;BME280;15315;50.836;4.430;2023-05-29T15:07:37;101789.69;;;23.08;48.72
27980;BME280;15315;50.836;4.430;2023-05-29T15:17:38;101776.09;;;23.82;47.36
27980;BME280;15315;50.836;4.430;2023-05-29T15:27:40;101783.88;;;23.94;46.37
27980;BME280;15315;50.836;4.430;2023-05-29T15:37:42;101788.13;;;23.81;46.04
27980;BME280;15315;50.836;4.430;2023-05-29T15:47:42;101799.66;;;23.09;45.80
27980;BME280;15315;50.836;4.430;2023-05-29T15:57:43;101787.03;;;24.24;44.63
27980;BME280;15315;50.836;4.430;2023-05-29T16:07:44;101782.06;;;24.51;42.80
27980;BME280;15315;50.836;4.430;2023-05-29T16:17:47;101797.88;;;25.61;40.23
27980;BME280;15315;50.836;4.430;2023-05-29T16:27:48;101792.13;;;25.78;39.25
27980;BME280;15315;50.836;4.430;2023-05-29T16:37:49;101801.72;;;26.81;37.47
27980;BME280;15315;50.836;4.430;2023-05-29T16:47:50;101797.69;;;27.06;34.15
27980;BME280;15315;50.836;4.430;2023-05-29T16:57:52;101788.00;;;29.03;33.50
27980;BME280;15315;50.836;4.430;2023-05-29T17:07:52;101795.13;;;30.60;32.12
27980;BME280;15315;50.836;4.430;2023-05-29T17:17:53;101794.41;;;30.32;29.96
27980;BME280;15315;50.836;4.430;2023-05-29T17:27:54;101800.91;;;30.85;29.37
27980;BME280;15315;50.836;4.430;2023-05-29T17:37:54;101801.28;;;31.28;28.58
27980;BME280;15315;50.836;4.430;2023-05-29T17:47:55;101807.22;;;31.45;27.91
27980;BME280;15315;50.836;4.430;2023-05-29T17:57:55;101806.56;;;29.58;28.82
27980;BME280;15315;50.836;4.430;2023-05-29T18:07:56;101810.06;;;26.05;31.91
27980;BME280;15315;50.836;4.430;2023-05-29T18:17:56;101811.59;;;23.17;34.89
27980;BME280;15315;50.836;4.430;2023-05-29T18:27:57;101815.00;;;22.50;35.72
27980;BME280;15315;50.836;4.430;2023-05-29T18:37:58;101816.22;;;22.91;35.78
27980;BME280;15315;50.836;4.430;2023-05-29T18:47:58;101811.50;;;22.22;36.69
27980;BME280;15315;50.836;4.430;2023-05-29T18:57:59;101811.75;;;21.84;37.04
27980;BME280;15315;50.836;4.430;2023-05-29T19:08:01;101830.22;;;22.19;36.26
27980;BME280;15315;50.836;4.430;2023-05-29T19:18:07;101838.91;;;21.87;36.56
27980;BME280;15315;50.836;4.430;2023-05-29T19:28:08;101833.88;;;21.19;37.52
27980;BME280;15315;50.836;4.430;2023-05-29T19:38:08;101840.16;;;20.73;38.16
27980;BME280;15315;50.836;4.430;2023-05-29T19:48:09;101840.72;;;20.67;38.50
27980;BME280;15315;50.836;4.430;2023-05-29T19:58:10;101859.97;;;21.23;39.12
27980;BME280;15315;50.836;4.430;2023-05-29T20:08:10;101858.19;;;20.47;43.08
27980;BME280;15315;50.836;4.430;2023-05-29T20:18:11;101868.28;;;19.77;45.03
27980;BME280;15315;50.836;4.430;2023-05-29T20:28:11;101876.63;;;20.25;43.93
27980;BME280;15315;50.836;4.430;2023-05-29T20:38:12;101897.69;;;19.85;44.73
27980;BME280;15315;50.836;4.430;2023-05-29T20:48:13;101894.59;;;19.99;47.91
27980;BME280;15315;50.836;4.430;2023-05-29T20:58:14;101910.94;;;19.29;53.19
27980;BME280;15315;50.836;4.430;2023-05-29T21:08:15;101914.03;;;19.15;55.13
27980;BME280;15315;50.836;4.430;2023-05-29T21:18:16;101910.69;;;18.91;56.63
27980;BME280;15315;50.836;4.430;2023-05-29T21:28:17;101907.41;;;19.17;56.07
27980;BME280;15315;50.836;4.430;2023-05-29T21:38:17;101911.00;;;18.77;57.04
27980;BME280;15315;50.836;4.430;2023-05-29T21:48:17;101918.56;;;18.64;57.01
27980;BME280;15315;50.836;4.430;2023-05-29T21:58:18;101916.06;;;18.18;57.79
27980;BME280;15315;50.836;4.430;2023-05-29T22:08:21;101919.50;;;18.74;55.43
27980;BME280;15315;50.836;4.430;2023-05-29T22:18:21;101920.19;;;18.01;56.56
27980;BME280;15315;50.836;4.430;2023-05-29T22:28:22;101937.53;;;17.78;56.81
27980;BME280;15315;50.836;4.430;2023-05-29T22:38:22;101948.84;;;17.84;55.66
27980;BME280;15315;50.836;4.430;2023-05-29T22:48:23;101951.50;;;16.94;57.28
27980;BME280;15315;50.836;4.430;2023-05-29T22:58:23;101952.16;;;17.44;55.77
27980;BME280;15315;50.836;4.430;2023-05-29T23:08:23;101962.16;;;17.32;55.82
27980;BME280;15315;50.836;4.430;2023-05-29T23:18:24;101969.91;;;16.32;58.50
27980;BME280;15315;50.836;4.430;2023-05-29T23:28:25;101974.25;;;16.58;57.50
27980;BME280;15315;50.836;4.430;2023-05-29T23:38:25;101982.03;;;15.90;59.21
27980;BME280;15315;50.836;4.430;2023-05-29T23:48:26;101990.19;;;16.16;58.78
27980;BME280;15315;50.836;4.430;2023-05-29T23:58:27;101987.72;;;15.50;60.47
